Time;durP1;ratioP1;P1;durP2;ratioP2;P2;SDS_P1;SDS_P2;PMS_P1;PMS_P2;Temp;Humidity;BMP_temperature;BMP_pressure;BME280_temperature;BME280_humidity;BME280_pressure;Samples;Min_cycle;Max_cycle;Signal;HPM_P1;HPM_P2
2021/09/09 00:01:08;;;;;;;12.30;8.40;;;;;;;;;;4959412;29;20039;-78
2021/09/09 00:03:35;;;;;;;10.40;8.25;;;;;;;;;;4958632;28;20035;-78
2021/09/09 00:06:02;;;;;;;10.73;8.30;;;;;;;;;;4958813;28;20031;-80
2021/09/09 00:08:28;;;;;;;11.90;7.63;;;;;;;;;;4960855;28;20058;-78
2021/09/09 00:10:54;;;;;;;11.18;7.57;;;;;;;;;;4966595;28;20030;-78
2021/09/09 00:13:20;;;;;;;8.85;6.88;;;;;;;;;;4961252;29;20369;-78
2021/09/09 00:15:46;;;;;;;9.45;7.72;;;;;;;;;;4961566;28;20031;-78
2021/09/09 00:18:13;;;;;;;9.77;8.45;;;;;;;;;;4961246;28;20038;-78
2021/09/09 00:20:40;;;;;;;12.00;7.88;;;;;;;;;;4961235;28;20027;-78
2021/09/09 00:23:05;;;;;;;10.15;8.25;;;;;;;;;;4960932;28;20451;-78
2021/09/09 00:25:31;;;;;;;12.57;8.98;;;;;;;;;;4960561;28;20050;-78
2021/09/09 00:27:57;;;;;;;59.17;12.02;;;;;;;;;;4959775;28;20067;-80
2021/09/09 00:30:23;;;;;;;16.15;11.63;;;;;;;;;;4958812;28;20091;-78
2021/09/09 00:32:50;;;;;;;14.82;11.30;;;;;;;;;;4960018;28;20058;-78
2021/09/09 00:35:16;;;;;;;13.65;9.75;;;;;;;;;;4960187;28;20027;-78
2021/09/09 00:37:41;;;;;;;11.27;9.50;;;;;;;;;;4960022;28;20054;-78
2021/09/09 00:40:08;;;;;;;23.65;10.65;;;;;;;;;;4958821;28;20413;-78
2021/09/09 00:42:34;;;;;;;14.80;9.77;;;;;;;;;;4959713;28;20553;-78
2021/09/09 00:44:59;;;;;;;19.58;10.88;;;;;;;;;;4964745;28;20043;-80
2021/09/09 00:47:25;;;;;;;14.15;9.70;;;;;;;;;;4964669;28;20035;-80
2021/09/09 00:49:50;;;;;;;13.88;8.75;;;;;;;;;;4963606;28;20047;-80
2021/09/09 00:52:16;;;;;;;16.08;9.18;;;;;;;;;;4962239;28;20039;-80
2021/09/09 00:54:43;;;;;;;14.13;9.27;;;;;;;;;;4962216;28;20028;-79
2021/09/09 00:57:09;;;;;;;14.40;9.18;;;;;;;;;;4962182;28;20046;-79
2021/09/09 00:59:35;;;;;;;15.45;11.50;;;;;;;;;;4961389;28;20039;-78
2021/09/09 01:02:02;;;;;;;19.13;12.20;;;;;;;;;;4962868;28;20039;-78
2021/09/09 01:04:28;;;;;;;21.25;11.20;;;;;;;;;;4961451;28;20433;-78
2021/09/09 01:06:55;;;;;;;15.48;11.07;;;;;;;;;;4961636;28;20039;-78
2021/09/09 01:09:21;;;;;;;17.08;12.07;;;;;;;;;;4961507;28;20038;-78
2021/09/09 01:11:46;;;;;;;17.77;12.50;;;;;;;;;;4960750;28;20038;-79
2021/09/09 01:14:14;;;;;;;17.77;12.68;;;;;;;;;;4961574;28;20039;-78
2021/09/09 01:16:41;;;;;;;18.48;11.18;;;;;;;;;;4961216;28;20103;-79
2021/09/09 01:19:08;;;;;;;16.45;11.05;;;;;;;;;;4960361;28;20147;-78
2021/09/09 01:21:35;;;;;;;14.77;10.02;;;;;;;;;;4960781;28;20043;-78
2021/09/09 01:24:02;;;;;;;11.50;8.88;;;;;;;;;;4960613;28;20070;-79
2021/09/09 01:26:29;;;;;;;18.35;9.23;;;;;;;;;;4962554;28;20031;-80
2021/09/09 01:28:56;;;;;;;16.00;9.73;;;;;;;;;;4961312;28;20130;-80
2021/09/09 01:31:22;;;;;;;16.73;10.98;;;;;;;;;;4961751;28;20059;-79
2021/09/09 01:33:48;;;;;;;14.57;9.55;;;;;;;;;;4961010;28;20031;-78
2021/09/09 01:36:13;;;;;;;17.52;10.52;;;;;;;;;;4961079;28;20559;-78
2021/09/09 01:38:39;;;;;;;15.23;11.23;;;;;;;;;;4954183;28;20405;-78
2021/09/09 01:41:04;;;;;;;19.08;12.50;;;;;;;;;;4958123;28;20126;-80
2021/09/09 01:43:30;;;;;;;18.55;11.73;;;;;;;;;;4958924;29;20137;-79
2021/09/09 01:45:56;;;;;;;20.40;13.95;;;;;;;;;;4960226;28;20039;-78
2021/09/09 01:48:21;;;;;;;17.90;12.40;;;;;;;;;;4959883;28;20034;-78
2021/09/09 01:50:47;;;;;;;15.25;11.27;;;;;;;;;;4959424;28;20047;-78
2021/09/09 01:53:12;;;;;;;15.45;11.55;;;;;;;;;;4959615;28;20039;-78
2021/09/09 01:55:38;;;;;;;14.70;10.57;;;;;;;;;;4959272;29;20046;-78
2021/09/09 01:58:03;;;;;;;18.27;10.90;;;;;;;;;;4959286;29;20549;-78
2021/09/09 02:00:29;;;;;;;18.10;12.18;;;;;;;;;;4959560;28;20042;-78
2021/09/09 02:02:54;;;;;;;17.25;12.23;;;;;;;;;;4958980;28;20062;-78
2021/09/09 02:05:19;;;;;;;15.65;11.50;;;;;;;;;;4957160;29;20062;-79
2021/09/09 02:07:45;;;;;;;27.52;12.23;;;;;;;;;;4965864;28;20102;-79
2021/09/09 02:10:11;;;;;;;13.48;11.57;;;;;;;;;;4977608;28;20133;-79
2021/09/09 02:12:36;;;;;;;13.75;10.95;;;;;;;;;;4975806;28;20441;-78
2021/09/09 02:15:02;;;;;;;13.68;10.50;;;;;;;;;;4959988;28;20038;-79
2021/09/09 02:17:27;;;;;;;14.43;11.45;;;;;;;;;;4977676;28;20035;-79
2021/09/09 02:19:53;;;;;;;15.10;11.75;;;;;;;;;;4977586;28;20093;-82
2021/09/09 02:22:18;;;;;;;14.98;11.80;;;;;;;;;;4978339;28;20038;-83
2021/09/09 02:24:47;;;;;;;11.63;9.90;;;;;;;;;;4977740;28;20042;-83
2021/09/09 02:27:17;;;;;;;18.90;9.02;;;;;;;;;;4976693;28;20039;-82
2021/09/09 02:29:42;;;;;;;13.38;9.85;;;;;;;;;;4977555;28;20496;-83
2021/09/09 02:32:08;;;;;;;15.50;9.93;;;;;;;;;;4976862;28;20046;-82
2021/09/09 02:34:34;;;;;;;16.73;9.88;;;;;;;;;;4978330;28;20046;-83
2021/09/09 02:37:00;;;;;;;14.57;9.82;;;;;;;;;;4976289;28;20049;-82
2021/09/09 02:39:25;;;;;;;16.33;9.43;;;;;;;;;;4947221;28;20111;-82
2021/09/09 02:41:51;;;;;;;12.80;10.02;;;;;;;;;;4937352;29;20147;-83
2021/09/09 02:44:16;;;;;;;12.45;9.70;;;;;;;;;;4937152;29;20047;-83
2021/09/09 02:46:42;;;;;;;17.15;8.98;;;;;;;;;;4938762;29;20043;-82
2021/09/09 02:49:07;;;;;;;24.88;11.00;;;;;;;;;;4938712;29;20040;-82
2021/09/09 02:51:32;;;;;;;11.32;9.27;;;;;;;;;;4941270;29;20051;-81
2021/09/09 02:53:58;;;;;;;21.17;10.38;;;;;;;;;;4936949;29;20075;-80
2021/09/09 02:56:23;;;;;;;25.25;10.70;;;;;;;;;;4936989;29;20469;-81
2021/09/09 02:58:49;;;;;;;18.98;11.50;;;;;;;;;;4938881;29;20040;-80
2021/09/09 03:01:14;;;;;;;13.18;10.13;;;;;;;;;;4942985;29;20039;-81
2021/09/09 03:03:39;;;;;;;15.10;10.93;;;;;;;;;;4941637;29;20040;-79
2021/09/09 03:06:06;;;;;;;13.40;10.15;;;;;;;;;;4941515;29;20031;-80
2021/09/09 03:08:31;;;;;;;10.52;9.07;;;;;;;;;;4947296;28;20129;-80
2021/09/09 03:10:58;;;;;;;11.30;9.25;;;;;;;;;;4961531;28;20559;-80
2021/09/09 03:13:23;;;;;;;13.77;9.05;;;;;;;;;;4961392;28;20042;-81
2021/09/09 03:15:49;;;;;;;12.48;8.90;;;;;;;;;;4961899;28;20092;-80
2021/09/09 03:18:15;;;;;;;10.82;8.82;;;;;;;;;;4946373;28;20059;-80
2021/09/09 03:20:40;;;;;;;9.73;8.25;;;;;;;;;;4941938;29;20509;-80
2021/09/09 03:23:05;;;;;;;11.25;8.45;;;;;;;;;;4941171;29;20040;-80
2021/09/09 03:25:31;;;;;;;9.10;7.80;;;;;;;;;;4941990;29;20055;-79
2021/09/09 03:27:56;;;;;;;17.00;7.70;;;;;;;;;;4941529;29;20035;-80
2021/09/09 03:30:22;;;;;;;9.07;8.00;;;;;;;;;;4941716;29;20043;-80
2021/09/09 03:32:47;;;;;;;8.25;7.32;;;;;;;;;;4941303;29;20058;-80
2021/09/09 03:35:13;;;;;;;19.52;8.00;;;;;;;;;;4941040;29;20159;-80
2021/09/09 03:37:38;;;;;;;14.60;8.25;;;;;;;;;;4941527;29;20058;-79
2021/09/09 03:40:04;;;;;;;9.52;7.85;;;;;;;;;;4941280;29;20040;-80
2021/09/09 03:42:30;;;;;;;14.70;8.15;;;;;;;;;;4941702;29;20047;-80
2021/09/09 03:44:55;;;;;;;11.73;8.35;;;;;;;;;;4944853;28;20050;-80
2021/09/09 03:47:20;;;;;;;10.30;8.07;;;;;;;;;;4944159;29;20040;-80
2021/09/09 03:49:46;;;;;;;10.20;8.35;;;;;;;;;;4943810;29;20066;-80
2021/09/09 03:52:11;;;;;;;12.60;8.30;;;;;;;;;;4958264;29;20070;-80
2021/09/09 03:54:37;;;;;;;14.90;9.65;;;;;;;;;;4943515;29;20031;-80
2021/09/09 03:57:02;;;;;;;25.38;9.88;;;;;;;;;;4942428;29;20035;-80
2021/09/09 03:59:28;;;;;;;12.98;9.70;;;;;;;;;;4943436;29;20039;-79
2021/09/09 04:01:53;;;;;;;12.75;8.63;;;;;;;;;;4944147;29;20050;-80
2021/09/09 04:04:19;;;;;;;15.23;8.80;;;;;;;;;;4943169;29;20059;-80
2021/09/09 04:06:44;;;;;;;15.68;8.10;;;;;;;;;;4943588;29;20074;-80
2021/09/09 04:09:09;;;;;;;20.27;8.63;;;;;;;;;;4942868;29;20043;-80
2021/09/09 04:11:36;;;;;;;19.63;8.80;;;;;;;;;;4957633;28;20035;-81
2021/09/09 04:14:02;;;;;;;18.63;9.38;;;;;;;;;;4941401;29;20114;-81
2021/09/09 04:16:28;;;;;;;11.90;7.95;;;;;;;;;;4947123;29;20043;-81
2021/09/09 04:18:53;;;;;;;20.52;9.07;;;;;;;;;;4962217;28;20040;-82
2021/09/09 04:21:18;;;;;;;12.10;8.20;;;;;;;;;;4953677;29;20051;-81
2021/09/09 04:23:44;;;;;;;26.02;8.20;;;;;;;;;;4964101;28;20098;-81
2021/09/09 04:26:09;;;;;;;10.20;7.95;;;;;;;;;;4962856;29;20043;-81
2021/09/09 04:28:34;;;;;;;29.30;9.90;;;;;;;;;;4963147;28;20039;-81
2021/09/09 04:31:00;;;;;;;17.15;8.85;;;;;;;;;;4963910;28;20043;-80
2021/09/09 04:33:25;;;;;;;13.32;9.45;;;;;;;;;;4947897;29;20130;-82
2021/09/09 04:35:50;;;;;;;11.98;8.80;;;;;;;;;;4964739;28;20035;-81
2021/09/09 04:38:16;;;;;;;13.07;9.75;;;;;;;;;;4963458;28;20039;-81
2021/09/09 04:40:41;;;;;;;13.35;8.77;;;;;;;;;;4961410;28;20035;-80
2021/09/09 04:43:07;;;;;;;12.80;8.98;;;;;;;;;;4961713;29;20031;-80
2021/09/09 04:45:32;;;;;;;12.80;9.88;;;;;;;;;;4960636;29;20477;-81
2021/09/09 04:47:58;;;;;;;15.60;11.18;;;;;;;;;;4961189;29;20039;-80
2021/09/09 04:50:24;;;;;;;14.13;10.50;;;;;;;;;;4962179;28;20047;-80
2021/09/09 04:52:50;;;;;;;13.30;11.27;;;;;;;;;;4944990;28;20166;-80
2021/09/09 04:55:15;;;;;;;12.70;10.30;;;;;;;;;;4941296;29;20466;-82
2021/09/09 04:57:41;;;;;;;14.25;10.90;;;;;;;;;;4942331;29;20046;-81
2021/09/09 05:00:07;;;;;;;22.10;10.98;;;;;;;;;;4942189;29;20036;-80
2021/09/09 05:02:32;;;;;;;13.48;10.52;;;;;;;;;;4940739;29;20485;-81
2021/09/09 05:04:58;;;;;;;13.10;10.10;;;;;;;;;;4958889;29;20039;-81
2021/09/09 05:07:23;;;;;;;12.25;10.25;;;;;;;;;;4960497;28;20035;-80
2021/09/09 05:09:49;;;;;;;12.45;10.07;;;;;;;;;;4960117;28;20441;-80
2021/09/09 05:12:14;;;;;;;16.60;11.48;;;;;;;;;;4959498;28;20062;-81
2021/09/09 05:14:40;;;;;;;20.77;10.93;;;;;;;;;;4960489;29;20038;-80
2021/09/09 05:17:05;;;;;;;16.13;10.52;;;;;;;;;;4960571;28;20039;-80
2021/09/09 05:19:30;;;;;;;19.83;11.43;;;;;;;;;;4959208;29;20039;-80
2021/09/09 05:21:56;;;;;;;44.33;12.27;;;;;;;;;;4960482;28;20042;-79
2021/09/09 05:24:21;;;;;;;44.80;13.93;;;;;;;;;;4961145;29;20039;-82
2021/09/09 05:26:46;;;;;;;20.55;11.48;;;;;;;;;;4964230;28;20098;-84
2021/09/09 05:29:12;;;;;;;17.30;11.20;;;;;;;;;;4962484;28;20043;-84
2021/09/09 05:31:41;;;;;;;90.65;12.70;;;;;;;;;;4959844;29;20051;-82
2021/09/09 05:34:07;;;;;;;17.52;11.55;;;;;;;;;;4965751;29;20046;-84
2021/09/09 05:36:32;;;;;;;19.30;11.77;;;;;;;;;;4961080;29;20035;-82
2021/09/09 05:38:58;;;;;;;25.33;12.45;;;;;;;;;;4961177;29;20412;-81
2021/09/09 05:41:24;;;;;;;34.80;13.20;;;;;;;;;;4960546;29;20027;-83
2021/09/09 05:43:49;;;;;;;22.88;12.23;;;;;;;;;;4960582;28;20039;-83
2021/09/09 05:46:15;;;;;;;25.25;12.70;;;;;;;;;;4959990;28;20043;-83
2021/09/09 05:48:40;;;;;;;18.58;12.68;;;;;;;;;;4959639;28;20047;-85
2021/09/09 05:51:07;;;;;;;16.65;12.63;;;;;;;;;;4955998;28;20046;-83
2021/09/09 05:53:33;;;;;;;22.38;13.48;;;;;;;;;;4959721;28;20074;-84
2021/09/09 05:55:58;;;;;;;18.08;12.80;;;;;;;;;;4959008;29;20035;-82
2021/09/09 05:58:23;;;;;;;27.50;13.00;;;;;;;;;;4957685;28;20039;-82
2021/09/09 06:00:49;;;;;;;82.18;13.15;;;;;;;;;;4957751;29;20133;-82
2021/09/09 06:03:14;;;;;;;40.20;12.10;;;;;;;;;;4935979;29;20047;-82
2021/09/09 06:05:40;;;;;;;44.17;12.05;;;;;;;;;;4954680;28;20057;-83
2021/09/09 06:08:06;;;;;;;16.70;13.52;;;;;;;;;;4962058;29;20038;-80
2021/09/09 06:10:31;;;;;;;17.50;11.85;;;;;;;;;;4964446;28;20047;-81
2021/09/09 06:12:57;;;;;;;268.10;16.55;;;;;;;;;;4960525;29;20043;-81
2021/09/09 06:15:22;;;;;;;77.18;13.57;;;;;;;;;;4959706;29;20031;-80
2021/09/09 06:17:49;;;;;;;35.22;11.63;;;;;;;;;;4965802;28;20047;-81
2021/09/09 06:20:16;;;;;;;61.90;12.43;;;;;;;;;;4950121;29;20039;-81
2021/09/09 06:22:42;;;;;;;55.92;11.82;;;;;;;;;;4967170;28;20047;-81
2021/09/09 06:25:08;;;;;;;55.15;12.48;;;;;;;;;;4967393;28;20039;-81
2021/09/09 06:27:34;;;;;;;15.48;11.38;;;;;;;;;;4968189;28;20071;-81
2021/09/09 06:29:59;;;;;;;47.33;11.18;;;;;;;;;;4967996;28;20046;-81
2021/09/09 06:32:25;;;;;;;52.97;12.52;;;;;;;;;;4968284;28;20081;-82
2021/09/09 06:34:50;;;;;;;207.95;14.30;;;;;;;;;;4964847;28;20046;-82
2021/09/09 06:37:17;;;;;;;37.22;11.10;;;;;;;;;;4961656;29;20042;-82
2021/09/09 06:39:42;;;;;;;20.10;11.45;;;;;;;;;;4947790;28;20796;-82
2021/09/09 06:42:07;;;;;;;17.70;11.60;;;;;;;;;;4938298;29;20046;-82
2021/09/09 06:44:33;;;;;;;97.50;11.50;;;;;;;;;;4941104;29;20047;-82
2021/09/09 06:46:58;;;;;;;70.10;11.65;;;;;;;;;;4963290;28;20056;-81
2021/09/09 06:49:23;;;;;;;11.45;10.18;;;;;;;;;;4958484;29;20019;-82
2021/09/09 06:51:49;;;;;;;15.50;10.40;;;;;;;;;;4967467;28;20065;-79
2021/09/09 06:54:16;;;;;;;14.48;9.55;;;;;;;;;;4959934;28;20087;-83
2021/09/09 06:56:42;;;;;;;12.13;10.40;;;;;;;;;;4957231;29;20170;-82
2021/09/09 06:59:08;;;;;;;12.02;10.40;;;;;;;;;;4956331;28;20062;-82
2021/09/09 07:01:33;;;;;;;16.85;10.52;;;;;;;;;;4962320;28;20043;-82
2021/09/09 07:03:58;;;;;;;12.65;11.13;;;;;;;;;;4958115;29;20453;-82
2021/09/09 07:06:24;;;;;;;18.77;10.93;;;;;;;;;;4943879;29;20043;-81
2021/09/09 07:08:49;;;;;;;12.55;9.70;;;;;;;;;;4938274;29;20043;-82
2021/09/09 07:11:15;;;;;;;13.10;10.27;;;;;;;;;;4942579;29;20110;-83
2021/09/09 07:13:40;;;;;;;16.77;10.23;;;;;;;;;;4954897;29;20552;-81
2021/09/09 07:16:05;;;;;;;26.92;9.95;;;;;;;;;;4957285;29;20035;-82
2021/09/09 07:18:33;;;;;;;15.20;10.32;;;;;;;;;;4959183;28;20082;-83
2021/09/09 07:20:59;;;;;;;12.13;10.02;;;;;;;;;;4947480;29;20453;-84
2021/09/09 07:23:24;;;;;;;20.90;9.40;;;;;;;;;;4945442;29;20125;-84
2021/09/09 07:25:50;;;;;;;16.23;10.20;;;;;;;;;;4960300;28;20050;-82
2021/09/09 07:28:16;;;;;;;10.75;8.85;;;;;;;;;;4960913;28;20050;-82
2021/09/09 07:30:42;;;;;;;11.52;9.88;;;;;;;;;;4960671;28;20051;-83
2021/09/09 07:33:07;;;;;;;10.25;8.65;;;;;;;;;;4961631;28;20051;-84
2021/09/09 07:35:33;;;;;;;11.60;9.07;;;;;;;;;;4960264;28;20054;-77
2021/09/09 07:37:59;;;;;;;12.57;8.50;;;;;;;;;;4960414;28;20035;-80
2021/09/09 07:40:24;;;;;;;9.85;7.88;;;;;;;;;;4966815;28;20034;-79
2021/09/09 07:42:50;;;;;;;10.95;9.07;;;;;;;;;;4966511;28;20086;-77
2021/09/09 07:45:15;;;;;;;9.15;7.95;;;;;;;;;;4963175;28;20050;-77
2021/09/09 07:47:41;;;;;;;10.10;7.88;;;;;;;;;;4960360;28;20098;-78
2021/09/09 07:50:08;;;;;;;8.55;7.28;;;;;;;;;;4959765;29;20082;-78
2021/09/09 07:52:34;;;;;;;10.90;7.43;;;;;;;;;;4959387;28;20070;-79
2021/09/09 07:55:00;;;;;;;12.18;7.45;;;;;;;;;;4957965;29;20073;-78
2021/09/09 07:57:25;;;;;;;8.73;6.70;;;;;;;;;;4959527;28;20178;-78
2021/09/09 07:59:51;;;;;;;12.38;7.63;;;;;;;;;;4957072;28;20098;-78
2021/09/09 08:02:17;;;;;;;12.18;7.22;;;;;;;;;;4957215;28;20031;-78
2021/09/09 08:04:42;;;;;;;15.15;6.72;;;;;;;;;;4959467;28;20104;-77
2021/09/09 08:07:08;;;;;;;12.45;6.35;;;;;;;;;;4958602;28;20047;-78
2021/09/09 08:09:33;;;;;;;11.82;7.38;;;;;;;;;;4958469;28;20039;-77
2021/09/09 08:11:59;;;;;;;11.63;6.50;;;;;;;;;;4956362;29;20442;-78
2021/09/09 08:14:24;;;;;;;12.75;7.30;;;;;;;;;;4960264;29;20043;-78
2021/09/09 08:16:49;;;;;;;10.70;7.57;;;;;;;;;;4959841;28;20039;-78
2021/09/09 08:19:15;;;;;;;10.65;6.72;;;;;;;;;;4960783;29;20477;-77
2021/09/09 08:21:41;;;;;;;8.27;6.35;;;;;;;;;;4958558;28;20042;-76
2021/09/09 08:24:06;;;;;;;11.52;7.05;;;;;;;;;;4957785;28;20035;-77
2021/09/09 08:26:32;;;;;;;8.40;6.95;;;;;;;;;;4957866;29;20039;-76
2021/09/09 08:28:57;;;;;;;12.60;7.45;;;;;;;;;;4956376;28;20047;-76
2021/09/09 08:31:22;;;;;;;16.20;7.82;;;;;;;;;;4957245;29;20059;-76
2021/09/09 08:33:48;;;;;;;11.25;6.82;;;;;;;;;;4957429;28;20031;-77
2021/09/09 08:36:16;;;;;;;8.07;6.38;;;;;;;;;;4956983;28;20027;-76
2021/09/09 08:38:42;;;;;;;7.47;6.07;;;;;;;;;;4955784;28;20055;-76
2021/09/09 08:41:08;;;;;;;8.48;6.43;;;;;;;;;;4956723;29;20042;-77
2021/09/09 08:43:33;;;;;;;11.93;6.53;;;;;;;;;;4956874;28;20042;-76
2021/09/09 08:46:01;;;;;;;12.10;6.72;;;;;;;;;;4957725;29;20145;-78
2021/09/09 08:48:28;;;;;;;9.18;6.78;;;;;;;;;;4956633;28;20035;-76
2021/09/09 08:50:53;;;;;;;13.95;7.18;;;;;;;;;;4956151;28;20147;-77
2021/09/09 08:53:21;;;;;;;11.45;6.78;;;;;;;;;;4957040;28;20046;-75
2021/09/09 08:55:48;;;;;;;11.05;6.80;;;;;;;;;;4955428;29;20050;-75
2021/09/09 08:58:13;;;;;;;11.85;6.32;;;;;;;;;;4957010;28;20043;-75
2021/09/09 09:01:03;;;;;;;8.82;6.13;;;;;;;;;;4956658;29;20086;-75
2021/09/09 09:03:50;;;;;;;11.43;6.97;;;;;;;;;;4955210;29;20046;-74
2021/09/09 09:06:21;;;;;;;11.15;6.80;;;;;;;;;;4956844;29;20039;-75
2021/09/09 09:08:54;;;;;;;12.00;6.47;;;;;;;;;;4956377;28;20039;-74
2021/09/09 09:11:23;;;;;;;7.60;6.13;;;;;;;;;;4957138;28;20049;-76
2021/09/09 09:13:49;;;;;;;17.83;6.60;;;;;;;;;;4955537;29;20396;-75
2021/09/09 09:16:14;;;;;;;9.20;6.90;;;;;;;;;;4956956;28;20039;-76
2021/09/09 09:18:43;;;;;;;8.18;5.65;;;;;;;;;;4956786;28;20047;-75
2021/09/09 09:21:08;;;;;;;10.63;6.93;;;;;;;;;;4956141;28;20035;-76
2021/09/09 09:23:34;;;;;;;9.75;6.47;;;;;;;;;;4956840;28;20495;-76
2021/09/09 09:26:02;;;;;;;20.45;6.57;;;;;;;;;;4955641;28;20043;-75
2021/09/09 09:28:58;;;;;;;12.18;6.10;;;;;;;;;;4954931;28;20035;-77
2021/09/09 09:31:32;;;;;;;11.07;6.72;;;;;;;;;;4954464;28;20067;-76
2021/09/09 09:33:59;;;;;;;7.35;5.82;;;;;;;;;;4955457;29;20469;-76
2021/09/09 09:36:33;;;;;;;11.27;5.93;;;;;;;;;;4956562;28;20460;-76
2021/09/09 09:39:12;;;;;;;10.15;5.88;;;;;;;;;;4956221;28;20484;-77
2021/09/09 09:42:00;;;;;;;8.10;6.13;;;;;;;;;;4956161;28;20359;-76
2021/09/09 09:44:38;;;;;;;8.25;6.03;;;;;;;;;;4936928;29;20103;-76
2021/09/09 09:47:31;;;;;;;13.23;7.38;;;;;;;;;;4937528;29;20043;-77
2021/09/09 09:49:58;;;;;;;8.35;5.88;;;;;;;;;;4935246;29;20481;-77
2021/09/09 09:52:26;;;;;;;8.02;5.47;;;;;;;;;;4934490;29;20498;-78
2021/09/09 09:54:53;;;;;;;9.43;5.53;;;;;;;;;;4936588;29;20054;-76
2021/09/09 09:57:20;;;;;;;9.70;5.40;;;;;;;;;;4937049;29;20039;-77
2021/09/09 09:59:46;;;;;;;12.05;5.28;;;;;;;;;;4936859;29;20059;-77
2021/09/09 10:02:11;;;;;;;12.88;5.93;;;;;;;;;;4946865;29;20493;-76
2021/09/09 10:04:42;;;;;;;9.77;5.32;;;;;;;;;;4954670;28;20482;-76
2021/09/09 10:07:09;;;;;;;6.07;5.00;;;;;;;;;;4955804;28;20050;-76
2021/09/09 10:09:34;;;;;;;8.88;5.85;;;;;;;;;;4954928;28;20066;-76
2021/09/09 10:11:59;;;;;;;7.60;5.03;;;;;;;;;;4953783;28;20077;-76
2021/09/09 10:14:26;;;;;;;10.75;5.45;;;;;;;;;;4953531;29;20085;-76
2021/09/09 10:16:56;;;;;;;7.70;5.50;;;;;;;;;;4954763;28;20429;-76
2021/09/09 10:19:27;;;;;;;8.65;5.40;;;;;;;;;;4954300;28;20077;-76
2021/09/09 10:22:10;;;;;;;10.57;5.53;;;;;;;;;;4954703;29;20047;-76
2021/09/09 10:24:38;;;;;;;9.65;5.90;;;;;;;;;;4953527;29;20027;-76
2021/09/09 10:27:27;;;;;;;7.50;5.60;;;;;;;;;;4955475;28;20109;-76
2021/09/09 10:30:06;;;;;;;8.27;6.03;;;;;;;;;;4937952;29;20094;-76
2021/09/09 10:32:31;;;;;;;8.20;5.30;;;;;;;;;;4954013;28;20505;-76
2021/09/09 10:35:15;;;;;;;12.30;5.15;;;;;;;;;;4937880;29;20043;-76
2021/09/09 10:37:46;;;;;;;10.65;5.10;;;;;;;;;;4954932;28;20114;-76
2021/09/09 10:40:30;;;;;;;9.40;5.32;;;;;;;;;;4954351;28;20477;-76
2021/09/09 10:42:56;;;;;;;8.52;5.10;;;;;;;;;;4955392;29;20070;-76
2021/09/09 10:45:34;;;;;;;21.90;5.70;;;;;;;;;;4953447;28;20031;-77
2021/09/09 10:48:30;;;;;;;6.07;5.22;;;;;;;;;;4954883;29;20046;-77
2021/09/09 10:51:06;;;;;;;6.90;5.03;;;;;;;;;;4948071;28;20424;-76
2021/09/09 10:53:55;;;;;;;11.20;5.30;;;;;;;;;;4954601;29;20042;-79
2021/09/09 10:56:20;;;;;;;11.52;4.82;;;;;;;;;;4958452;28;20481;-76
2021/09/09 10:58:53;;;;;;;15.20;5.50;;;;;;;;;;4954821;28;20126;-75
2021/09/09 11:01:19;;;;;;;10.60;5.00;;;;;;;;;;4938175;29;20039;-76
2021/09/09 11:03:48;;;;;;;9.48;5.68;;;;;;;;;;4954891;28;20376;-75
2021/09/09 11:06:22;;;;;;;11.52;5.28;;;;;;;;;;4952892;28;20039;-76
2021/09/09 11:08:51;;;;;;;9.02;5.60;;;;;;;;;;4951869;28;20036;-76
2021/09/09 11:11:20;;;;;;;10.35;5.55;;;;;;;;;;4953368;28;20125;-76
2021/09/09 11:13:54;;;;;;;11.93;5.35;;;;;;;;;;4935370;29;20397;-74
2021/09/09 11:16:33;;;;;;;15.63;5.50;;;;;;;;;;4935382;29;20036;-74
2021/09/09 11:18:59;;;;;;;8.18;5.22;;;;;;;;;;4935777;29;20505;-75
2021/09/09 11:21:31;;;;;;;13.40;5.32;;;;;;;;;;4948758;29;20057;-75
2021/09/09 11:24:11;;;;;;;7.50;4.88;;;;;;;;;;4954567;28;20042;-74
2021/09/09 11:26:39;;;;;;;8.15;4.93;;;;;;;;;;4954716;29;20512;-74
2021/09/09 11:29:06;;;;;;;12.43;5.93;;;;;;;;;;4954657;28;20054;-74
2021/09/09 11:31:53;;;;;;;8.07;5.07;;;;;;;;;;4937646;29;20198;-74
2021/09/09 11:34:30;;;;;;;7.68;5.28;;;;;;;;;;4937592;28;20121;-74
2021/09/09 11:36:59;;;;;;;11.93;5.22;;;;;;;;;;4954713;28;20089;-74
2021/09/09 11:39:27;;;;;;;9.65;5.55;;;;;;;;;;4953445;28;20130;-74
2021/09/09 11:41:54;;;;;;;9.93;4.88;;;;;;;;;;4953586;29;20032;-74
2021/09/09 11:44:27;;;;;;;14.32;5.40;;;;;;;;;;4953782;28;20046;-74
2021/09/09 11:46:52;;;;;;;11.82;5.43;;;;;;;;;;4953596;29;20039;-75
2021/09/09 11:49:20;;;;;;;7.90;5.10;;;;;;;;;;4954207;28;20381;-75
2021/09/09 11:51:47;;;;;;;8.93;5.07;;;;;;;;;;4952871;28;20122;-76
2021/09/09 11:54:18;;;;;;;6.85;4.80;;;;;;;;;;4953253;28;20051;-75
2021/09/09 11:56:45;;;;;;;6.20;5.00;;;;;;;;;;4954561;28;20374;-76
2021/09/09 11:59:17;;;;;;;9.20;5.43;;;;;;;;;;4954815;28;20039;-76
2021/09/09 12:01:44;;;;;;;7.78;5.13;;;;;;;;;;4954589;28;20599;-76
2021/09/09 12:04:12;;;;;;;9.65;4.70;;;;;;;;;;4956880;28;20081;-77
2021/09/09 12:06:38;;;;;;;8.77;4.45;;;;;;;;;;4956301;29;20425;-77
2021/09/09 12:09:04;;;;;;;6.60;4.97;;;;;;;;;;4956799;28;20078;-77
2021/09/09 12:11:33;;;;;;;7.38;4.22;;;;;;;;;;4957953;28;20027;-77
2021/09/09 12:14:14;;;;;;;13.82;4.60;;;;;;;;;;4957104;28;20035;-76
2021/09/09 12:16:39;;;;;;;9.82;4.40;;;;;;;;;;4956597;29;20081;-76
2021/09/09 12:19:10;;;;;;;11.90;5.15;;;;;;;;;;4958076;28;20446;-77
2021/09/09 12:21:49;;;;;;;9.48;4.70;;;;;;;;;;4957865;28;20049;-77
2021/09/09 12:24:20;;;;;;;10.93;4.70;;;;;;;;;;4957749;28;20368;-77
2021/09/09 12:26:59;;;;;;;8.93;4.80;;;;;;;;;;4957779;28;20042;-77
2021/09/09 12:29:25;;;;;;;8.48;4.45;;;;;;;;;;4957450;28;20035;-77
2021/09/09 12:31:50;;;;;;;7.28;4.70;;;;;;;;;;4957597;29;20138;-77
2021/09/09 12:34:18;;;;;;;10.50;4.90;;;;;;;;;;4956569;29;20523;-77
2021/09/09 12:36:46;;;;;;;13.48;4.18;;;;;;;;;;4956656;29;20035;-76
2021/09/09 12:39:15;;;;;;;9.05;4.50;;;;;;;;;;4957056;28;20039;-77
2021/09/09 12:41:41;;;;;;;9.40;4.70;;;;;;;;;;4957609;28;20045;-76
2021/09/09 12:44:11;;;;;;;5.40;4.78;;;;;;;;;;4957767;28;20047;-78
2021/09/09 12:46:37;;;;;;;9.00;4.35;;;;;;;;;;4958852;28;20186;-78
2021/09/09 12:49:21;;;;;;;16.65;4.40;;;;;;;;;;4960084;28;20051;-79
2021/09/09 12:51:48;;;;;;;6.95;4.32;;;;;;;;;;4960140;28;20393;-78
2021/09/09 12:54:16;;;;;;;4.72;4.22;;;;;;;;;;4958754;28;20493;-80
2021/09/09 12:56:49;;;;;;;7.60;5.32;;;;;;;;;;4962771;28;20035;-80
2021/09/09 12:59:16;;;;;;;12.73;5.00;;;;;;;;;;4960752;28;20090;-78
2021/09/09 13:01:42;;;;;;;6.97;4.25;;;;;;;;;;4958112;28;20385;-78
2021/09/09 13:04:07;;;;;;;5.68;4.32;;;;;;;;;;4958515;28;20086;-78
2021/09/09 13:06:33;;;;;;;15.23;4.15;;;;;;;;;;4957539;28;20031;-78
2021/09/09 13:08:58;;;;;;;5.65;4.05;;;;;;;;;;4956443;28;20066;-77
2021/09/09 13:11:24;;;;;;;7.45;4.45;;;;;;;;;;4957462;29;20042;-78
2021/09/09 13:13:49;;;;;;;7.15;4.20;;;;;;;;;;4959484;28;20038;-77
2021/09/09 13:16:15;;;;;;;8.85;4.63;;;;;;;;;;4959762;28;20118;-78
2021/09/09 13:18:42;;;;;;;13.45;4.90;;;;;;;;;;4962187;28;20028;-78
2021/09/09 13:21:09;;;;;;;8.80;4.32;;;;;;;;;;4960581;28;20405;-81
2021/09/09 13:23:36;;;;;;;10.30;4.20;;;;;;;;;;4954482;29;20031;-77
2021/09/09 13:26:01;;;;;;;11.60;4.18;;;;;;;;;;4944499;29;20180;-78
2021/09/09 13:28:27;;;;;;;8.50;4.57;;;;;;;;;;4952744;28;20148;-77
2021/09/09 13:30:52;;;;;;;7.93;4.40;;;;;;;;;;4940445;29;20044;-79
2021/09/09 13:33:17;;;;;;;8.68;4.20;;;;;;;;;;4935870;29;20062;-78
2021/09/09 13:35:44;;;;;;;9.00;4.00;;;;;;;;;;4937614;29;20047;-80
2021/09/09 13:38:09;;;;;;;12.45;4.32;;;;;;;;;;4940284;29;20413;-78
2021/09/09 13:40:35;;;;;;;8.60;4.10;;;;;;;;;;4955756;29;20039;-77
2021/09/09 13:43:00;;;;;;;6.75;4.28;;;;;;;;;;4956876;28;20035;-77
2021/09/09 13:45:26;;;;;;;7.80;4.05;;;;;;;;;;4959777;28;20442;-78
2021/09/09 13:47:52;;;;;;;8.07;4.75;;;;;;;;;;4958271;28;20134;-80
2021/09/09 13:50:17;;;;;;;12.23;4.60;;;;;;;;;;4958735;28;20071;-78
2021/09/09 13:52:43;;;;;;;13.20;4.25;;;;;;;;;;4957979;28;20043;-82
2021/09/09 13:55:09;;;;;;;13.60;5.03;;;;;;;;;;4959555;29;20362;-78
2021/09/09 13:57:38;;;;;;;7.38;3.90;;;;;;;;;;4959388;29;20070;-79
2021/09/09 14:00:05;;;;;;;8.35;4.15;;;;;;;;;;4957913;28;20134;-79
2021/09/09 14:02:33;;;;;;;7.60;4.20;;;;;;;;;;4956863;28;20039;-77
2021/09/09 14:04:58;;;;;;;11.70;4.47;;;;;;;;;;4957442;28;20041;-78
2021/09/09 14:07:24;;;;;;;15.40;4.82;;;;;;;;;;4959222;28;20125;-81
2021/09/09 14:09:53;;;;;;;13.75;5.05;;;;;;;;;;4960302;28;20035;-81
2021/09/09 14:12:18;;;;;;;9.52;4.10;;;;;;;;;;4958933;28;20043;-80
2021/09/09 14:14:44;;;;;;;12.52;4.25;;;;;;;;;;4958014;28;20087;-80
2021/09/09 14:17:12;;;;;;;11.00;4.60;;;;;;;;;;4957763;29;20043;-80
2021/09/09 14:19:38;;;;;;;7.38;4.13;;;;;;;;;;4957108;28;20050;-79
2021/09/09 14:22:03;;;;;;;22.95;12.18;;;;;;;;;;4957605;29;20425;-79
2021/09/09 14:24:28;;;;;;;9.43;5.00;;;;;;;;;;4958479;28;20031;-82
2021/09/09 14:26:54;;;;;;;12.77;4.55;;;;;;;;;;4956667;28;20049;-79
2021/09/09 14:29:19;;;;;;;6.13;4.07;;;;;;;;;;4957875;28;20043;-79